sensor_id;sensor_type;location;lat;lon;timestamp;pressure;altitude;pressure_sealevel;temperature;humidity
51687;BME280;37774;52.192;4.584;2023-04-15T00:01:59;100692.22;;;4.34;100.00
51687;BME280;37774;52.192;4.584;2023-04-15T00:04:47;100903.44;;;5.52;100.00
51687;BME280;37774;52.192;4.584;2023-04-15T00:07:33;100974.53;;;5.95;100.00
51687;BME280;37774;52.192;4.584;2023-04-15T00:10:18;100688.16;;;4.50;100.00
51687;BME280;37774;52.192;4.584;2023-04-15T00:13:04;100976.56;;;6.18;100.00
51687;BME280;37774;52.192;4.584;2023-04-15T00:15:49;100932.31;;;5.90;100.00
51687;BME280;37774;52.192;4.584;2023-04-15T00:18:35;100901.94;;;5.70;100.00
51687;BME280;37774;52.192;4.584;2023-04-15T00:21:22;100981.84;;;6.27;100.00
51687;BME280;37774;52.192;4.584;2023-04-15T00:24:07;100985.22;;;6.23;100.00
51687;BME280;37774;52.192;4.584;2023-04-15T00:26:53;100972.25;;;6.18;100.00
51687;BME280;37774;52.192;4.584;2023-04-15T00:29:39;100973.94;;;6.14;100.00
51687;BME280;37774;52.192;4.584;2023-04-15T00:32:24;100839.53;;;5.30;100.00
51687;BME280;37774;52.192;4.584;2023-04-15T00:35:10;100836.16;;;5.32;100.00
51687;BME280;37774;52.192;4.584;2023-04-15T00:37:57;100942.63;;;5.91;100.00
51687;BME280;37774;52.192;4.584;2023-04-15T00:40:42;100977.25;;;6.06;100.00
51687;BME280;37774;52.192;4.584;2023-04-15T00:43:28;100939.84;;;5.77;100.00
51687;BME280;37774;52.192;4.584;2023-04-15T00:46:15;100910.28;;;5.50;100.00
51687;BME280;37774;52.192;4.584;2023-04-15T00:49:03;100913.88;;;5.62;100.00
51687;BME280;37774;52.192;4.584;2023-04-15T00:51:49;100974.44;;;5.90;100.00
51687;BME280;37774;52.192;4.584;2023-04-15T00:54:36;100936.84;;;5.45;100.00
51687;BME280;37774;52.192;4.584;2023-04-15T00:57:21;100929.13;;;5.46;100.00
51687;BME280;37774;52.192;4.584;2023-04-15T01:00:08;100968.94;;;5.67;100.00
51687;BME280;37774;52.192;4.584;2023-04-15T01:02:54;100965.47;;;5.63;100.00
51687;BME280;37774;52.192;4.584;2023-04-15T01:05:41;100967.13;;;5.58;100.00
51687;BME280;37774;52.192;4.584;2023-04-15T01:08:26;100965.38;;;5.57;100.00
51687;BME280;37774;52.192;4.584;2023-04-15T01:11:14;100662.19;;;3.80;100.00
51687;BME280;37774;52.192;4.584;2023-04-15T01:14:00;100906.34;;;5.19;100.00
51687;BME280;37774;52.192;4.584;2023-04-15T01:16:45;100968.72;;;5.51;100.00
51687;BME280;37774;52.192;4.584;2023-04-15T01:19:31;100934.97;;;5.36;100.00
51687;BME280;37774;52.192;4.584;2023-04-15T01:22:20;100862.94;;;4.87;100.00
51687;BME280;37774;52.192;4.584;2023-04-15T01:25:11;100927.75;;;5.13;100.00
51687;BME280;37774;52.192;4.584;2023-04-15T01:27:58;100891.56;;;5.05;100.00
51687;BME280;37774;52.192;4.584;2023-04-15T01:30:43;100949.53;;;5.32;100.00
51687;BME280;37774;52.192;4.584;2023-04-15T01:33:29;100945.22;;;5.33;100.00
51687;BME280;37774;52.192;4.584;2023-04-15T01:36:14;100936.66;;;5.34;100.00
51687;BME280;37774;52.192;4.584;2023-04-15T01:39:00;100852.56;;;4.83;100.00
51687;BME280;37774;52.192;4.584;2023-04-15T01:41:45;100944.25;;;5.24;100.00
51687;BME280;37774;52.192;4.584;2023-04-15T01:44:33;100818.59;;;4.52;100.00
51687;BME280;37774;52.192;4.584;2023-04-15T01:47:18;100937.31;;;5.20;100.00
51687;BME280;37774;52.192;4.584;2023-04-15T01:50:05;100934.75;;;5.22;100.00
51687;BME280;37774;52.192;4.584;2023-04-15T01:52:50;100942.38;;;5.16;100.00
51687;BME280;37774;52.192;4.584;2023-04-15T01:55:35;100842.72;;;4.59;100.00
51687;BME280;37774;52.192;4.584;2023-04-15T01:58:21;100801.91;;;4.29;100.00
51687;BME280;37774;52.192;4.584;2023-04-15T02:01:07;100942.25;;;5.08;100.00
51687;BME280;37774;52.192;4.584;2023-04-15T02:03:54;100864.16;;;4.57;100.00
51687;BME280;37774;52.192;4.584;2023-04-15T02:06:40;100926.50;;;4.89;100.00
51687;BME280;37774;52.192;4.584;2023-04-15T02:09:25;100931.56;;;4.85;100.00
51687;BME280;37774;52.192;4.584;2023-04-15T02:12:11;100873.44;;;4.48;100.00
51687;BME280;37774;52.192;4.584;2023-04-15T02:14:57;100940.13;;;4.83;100.00
51687;BME280;37774;52.192;4.584;2023-04-15T02:17:43;100774.25;;;3.71;100.00
51687;BME280;37774;52.192;4.584;2023-04-15T02:20:33;100887.16;;;4.47;100.00
51687;BME280;37774;52.192;4.584;2023-04-15T02:23:19;100847.97;;;4.16;100.00
51687;BME280;37774;52.192;4.584;2023-04-15T02:26:05;100914.13;;;4.70;100.00
51687;BME280;37774;52.192;4.584;2023-04-15T02:28:50;100797.06;;;4.00;100.00
51687;BME280;37774;52.192;4.584;2023-04-15T02:31:36;100851.56;;;4.24;100.00
51687;BME280;37774;52.192;4.584;2023-04-15T02:34:24;100949.69;;;4.89;100.00
51687;BME280;37774;52.192;4.584;2023-04-15T02:37:10;100957.41;;;4.89;100.00
51687;BME280;37774;52.192;4.584;2023-04-15T02:39:56;100956.69;;;4.98;100.00
51687;BME280;37774;52.192;4.584;2023-04-15T02:42:42;100967.72;;;4.91;100.00
51687;BME280;37774;52.192;4.584;2023-04-15T02:45:28;100963.50;;;4.94;100.00
51687;BME280;37774;52.192;4.584;2023-04-15T02:48:14;100950.28;;;4.76;100.00
51687;BME280;37774;52.192;4.584;2023-04-15T02:51:13;100976.28;;;4.90;100.00
51687;BME280;37774;52.192;4.584;2023-04-15T02:53:58;100917.13;;;4.45;100.00
51687;BME280;37774;52.192;4.584;2023-04-15T02:56:44;100896.22;;;4.28;100.00
51687;BME280;37774;52.192;4.584;2023-04-15T02:59:29;100964.13;;;4.81;100.00
51687;BME280;37774;52.192;4.584;2023-04-15T03:02:15;100972.03;;;4.92;100.00
51687;BME280;37774;52.192;4.584;2023-04-15T03:05:00;100902.44;;;4.39;100.00
51687;BME280;37774;52.192;4.584;2023-04-15T03:07:47;100999.72;;;5.04;100.00
51687;BME280;37774;52.192;4.584;2023-04-15T03:10:32;100858.63;;;4.35;100.00
51687;BME280;37774;52.192;4.584;2023-04-15T03:13:18;100921.25;;;4.83;100.00
51687;BME280;37774;52.192;4.584;2023-04-15T03:16:04;100673.16;;;3.26;100.00
51687;BME280;37774;52.192;4.584;2023-04-15T03:18:49;100982.84;;;5.23;100.00
51687;BME280;37774;52.192;4.584;2023-04-15T03:21:35;100837.47;;;4.51;100.00
51687;BME280;37774;52.192;4.584;2023-04-15T03:24:22;100971.06;;;5.36;100.00
51687;BME280;37774;52.192;4.584;2023-04-15T03:27:07;100903.94;;;4.76;100.00
51687;BME280;37774;52.192;4.584;2023-04-15T03:29:53;100880.69;;;4.71;100.00
51687;BME280;37774;52.192;4.584;2023-04-15T03:32:39;100975.50;;;5.46;100.00
51687;BME280;37774;52.192;4.584;2023-04-15T03:35:25;100919.00;;;5.03;100.00
51687;BME280;37774;52.192;4.584;2023-04-15T03:38:10;100939.97;;;5.26;100.00
51687;BME280;37774;52.192;4.584;2023-04-15T03:40:57;100977.38;;;5.55;100.00
51687;BME280;37774;52.192;4.584;2023-04-15T03:43:42;100979.97;;;5.55;100.00
51687;BME280;37774;52.192;4.584;2023-04-15T03:46:28;100983.28;;;5.49;100.00
51687;BME280;37774;52.192;4.584;2023-04-15T03:49:13;100986.75;;;5.50;100.00
51687;BME280;37774;52.192;4.584;2023-04-15T03:51:59;100998.78;;;5.51;100.00
51687;BME280;37774;52.192;4.584;2023-04-15T03:54:44;100990.13;;;5.46;100.00
51687;BME280;37774;52.192;4.584;2023-04-15T03:57:32;100816.00;;;4.51;100.00
51687;BME280;37774;52.192;4.584;2023-04-15T04:00:22;100927.72;;;5.11;100.00
51687;BME280;37774;52.192;4.584;2023-04-15T04:03:07;100997.88;;;5.47;100.00
51687;BME280;37774;52.192;4.584;2023-04-15T04:05:53;101000.56;;;5.55;100.00
51687;BME280;37774;52.192;4.584;2023-04-15T04:08:38;100897.41;;;4.95;100.00
51687;BME280;37774;52.192;4.584;2023-04-15T04:11:24;100992.81;;;5.53;100.00
51687;BME280;37774;52.192;4.584;2023-04-15T04:14:11;101022.84;;;5.50;100.00
51687;BME280;37774;52.192;4.584;2023-04-15T04:16:56;100951.19;;;5.29;100.00
51687;BME280;37774;52.192;4.584;2023-04-15T04:19:41;101019.72;;;5.71;100.00
51687;BME280;37774;52.192;4.584;2023-04-15T04:22:27;100978.88;;;5.40;100.00
51687;BME280;37774;52.192;4.584;2023-04-15T04:25:12;100921.66;;;5.08;100.00
51687;BME280;37774;52.192;4.584;2023-04-15T04:27:58;100930.91;;;4.96;100.00
51687;BME280;37774;52.192;4.584;2023-04-15T04:30:44;101048.06;;;5.69;100.00
51687;BME280;37774;52.192;4.584;2023-04-15T04:33:30;101055.81;;;5.71;100.00
51687;BME280;37774;52.192;4.584;2023-04-15T04:36:15;101070.22;;;5.58;100.00
51687;BME280;37774;52.192;4.584;2023-04-15T04:39:01;101059.69;;;5.44;100.00
51687;BME280;37774;52.192;4.584;2023-04-15T04:41:46;100898.19;;;4.42;100.00
51687;BME280;37774;52.192;4.584;2023-04-15T04:44:32;101020.16;;;4.94;100.00
51687;BME280;37774;52.192;4.584;2023-04-15T04:47:19;101071.19;;;5.14;100.00
51687;BME280;37774;52.192;4.584;2023-04-15T04:50:05;101089.88;;;5.04;100.00
51687;BME280;37774;52.192;4.584;2023-04-15T04:52:50;101093.19;;;4.96;100.00
51687;BME280;37774;52.192;4.584;2023-04-15T04:55:36;100985.16;;;4.17;100.00
51687;BME280;37774;52.192;4.584;2023-04-15T04:58:22;101016.22;;;4.26;100.00
51687;BME280;37774;52.192;4.584;2023-04-15T05:01:07;101102.03;;;4.68;100.00
51687;BME280;37774;52.192;4.584;2023-04-15T05:03:54;100952.38;;;3.68;100.00
51687;BME280;37774;52.192;4.584;2023-04-15T05:06:39;100745.75;;;2.40;100.00
51687;BME280;37774;52.192;4.584;2023-04-15T05:09:25;100992.69;;;3.69;100.00
51687;BME280;37774;52.192;4.584;2023-04-15T05:12:11;100998.09;;;3.80;100.00
51687;BME280;37774;52.192;4.584;2023-04-15T05:14:57;101064.84;;;4.15;100.00
51687;BME280;37774;52.192;4.584;2023-04-15T05:17:43;101130.13;;;4.57;100.00
51687;BME280;37774;52.192;4.584;2023-04-15T05:20:30;101038.50;;;3.86;100.00
51687;BME280;37774;52.192;4.584;2023-04-15T05:23:15;101127.19;;;4.42;100.00
51687;BME280;37774;52.192;4.584;2023-04-15T05:26:00;101041.94;;;3.86;100.00
51687;BME280;37774;52.192;4.584;2023-04-15T05:28:46;101138.53;;;4.50;100.00
51687;BME280;37774;52.192;4.584;2023-04-15T05:31:32;101150.72;;;4.57;100.00
51687;BME280;37774;52.192;4.584;2023-04-15T05:34:18;101122.75;;;4.33;100.00
51687;BME280;37774;52.192;4.584;2023-04-15T05:37:04;101170.59;;;4.63;100.00
51687;BME280;37774;52.192;4.584;2023-04-15T05:39:50;101122.31;;;4.52;100.00
51687;BME280;37774;52.192;4.584;2023-04-15T05:42:35;101158.09;;;4.80;100.00
51687;BME280;37774;52.192;4.584;2023-04-15T05:45:21;101156.69;;;4.96;100.00
51687;BME280;37774;52.192;4.584;2023-04-15T05:48:06;101109.00;;;4.72;100.00
51687;BME280;37774;52.192;4.584;2023-04-15T05:50:51;101171.72;;;5.17;100.00
51687;BME280;37774;52.192;4.584;2023-04-15T05:53:38;101177.00;;;5.25;100.00
51687;BME280;37774;52.192;4.584;2023-04-15T05:56:24;101174.47;;;5.26;100.00
51687;BME280;37774;52.192;4.584;2023-04-15T05:59:10;101173.81;;;5.37;100.00
51687;BME280;37774;52.192;4.584;2023-04-15T06:01:55;101171.41;;;5.45;100.00
51687;BME280;37774;52.192;4.584;2023-04-15T06:04:41;101205.38;;;5.71;100.00
51687;BME280;37774;52.192;4.584;2023-04-15T06:07:26;101155.31;;;5.60;100.00
51687;BME280;37774;52.192;4.584;2023-04-15T06:10:13;101181.59;;;5.86;100.00
51687;BME280;37774;52.192;4.584;2023-04-15T06:12:58;101207.84;;;6.11;100.00
51687;BME280;37774;52.192;4.584;2023-04-15T06:15:44;101166.16;;;5.88;100.00
51687;BME280;37774;52.192;4.584;2023-04-15T06:18:29;101193.28;;;6.16;100.00
51687;BME280;37774;52.192;4.584;2023-04-15T06:21:15;101172.63;;;6.14;100.00
51687;BME280;37774;52.192;4.584;2023-04-15T06:24:01;101127.50;;;5.91;100.00
51687;BME280;37774;52.192;4.584;2023-04-15T06:26:48;101242.28;;;6.68;100.00
51687;BME280;37774;52.192;4.584;2023-04-15T06:29:33;101256.31;;;6.86;100.00
51687;BME280;37774;52.192;4.584;2023-04-15T06:32:18;101189.63;;;6.55;100.00
51687;BME280;37774;52.192;4.584;2023-04-15T06:35:05;101282.66;;;7.20;100.00
51687;BME280;37774;52.192;4.584;2023-04-15T06:37:50;101291.44;;;7.33;100.00
51687;BME280;37774;52.192;4.584;2023-04-15T06:40:35;101246.31;;;7.08;100.00
51687;BME280;37774;52.192;4.584;2023-04-15T06:43:22;101244.69;;;7.18;100.00
51687;BME280;37774;52.192;4.584;2023-04-15T06:46:07;101310.75;;;7.60;100.00
51687;BME280;37774;52.192;4.584;2023-04-15T06:48:53;101307.41;;;7.67;100.00
51687;BME280;37774;52.192;4.584;2023-04-15T06:51:39;101311.75;;;7.71;100.00
51687;BME280;37774;52.192;4.584;2023-04-15T06:54:25;101197.19;;;7.06;100.00
51687;BME280;37774;52.192;4.584;2023-04-15T06:57:10;100998.28;;;5.75;100.00
51687;BME280;37774;52.192;4.584;2023-04-15T06:59:57;101246.06;;;7.57;100.00
51687;BME280;37774;52.192;4.584;2023-04-15T07:02:43;101345.75;;;8.02;100.00
51687;BME280;37774;52.192;4.584;2023-04-15T07:05:28;101325.13;;;8.12;100.00
51687;BME280;37774;52.192;4.584;2023-04-15T07:08:13;101333.00;;;8.24;100.00
51687;BME280;37774;52.192;4.584;2023-04-15T07:10:58;101315.63;;;8.11;100.00
51687;BME280;37774;52.192;4.584;2023-04-15T07:13:44;101347.78;;;8.34;100.00
51687;BME280;37774;52.192;4.584;2023-04-15T07:16:31;101110.97;;;6.99;100.00
51687;BME280;37774;52.192;4.584;2023-04-15T07:19:16;101353.28;;;8.62;100.00
51687;BME280;37774;52.192;4.584;2023-04-15T07:22:02;101329.06;;;8.57;100.00
51687;BME280;37774;52.192;4.584;2023-04-15T07:24:47;101299.72;;;8.58;100.00
51687;BME280;37774;52.192;4.584;2023-04-15T07:27:33;101269.22;;;8.32;100.00
51687;BME280;37774;52.192;4.584;2023-04-15T07:30:18;101376.09;;;9.05;100.00
51687;BME280;37774;52.192;4.584;2023-04-15T07:33:05;101114.19;;;7.62;100.00
51687;BME280;37774;52.192;4.584;2023-04-15T07:35:51;101354.59;;;9.24;100.00
51687;BME280;37774;52.192;4.584;2023-04-15T07:38:37;101404.06;;;9.53;100.00
51687;BME280;37774;52.192;4.584;2023-04-15T07:41:22;101382.47;;;9.57;100.00
51687;BME280;37774;52.192;4.584;2023-04-15T07:44:08;101403.47;;;10.12;100.00
51687;BME280;37774;52.192;4.584;2023-04-15T07:46:54;101367.84;;;9.78;100.00
51687;BME280;37774;52.192;4.584;2023-04-15T07:49:41;101415.56;;;10.03;100.00
51687;BME280;37774;52.192;4.584;2023-04-15T07:52:27;101298.38;;;9.18;100.00
51687;BME280;37774;52.192;4.584;2023-04-15T07:55:12;101319.25;;;9.44;100.00
51687;BME280;37774;52.192;4.584;2023-04-15T07:57:59;101369.56;;;9.76;100.00
51687;BME280;37774;52.192;4.584;2023-04-15T08:00:45;101412.13;;;10.09;100.00
51687;BME280;37774;52.192;4.584;2023-04-15T08:03:30;101318.41;;;9.52;100.00
51687;BME280;37774;52.192;4.584;2023-04-15T08:06:17;101421.69;;;10.22;100.00
51687;BME280;37774;52.192;4.584;2023-04-15T08:09:03;101502.44;;;10.86;100.00
51687;BME280;37774;52.192;4.584;2023-04-15T08:11:48;101452.03;;;10.37;100.00
51687;BME280;37774;52.192;4.584;2023-04-15T08:14:34;101355.81;;;10.02;100.00
51687;BME280;37774;52.192;4.584;2023-04-15T08:17:19;101454.69;;;10.45;100.00
51687;BME280;37774;52.192;4.584;2023-04-15T08:20:06;101453.03;;;10.80;100.00
51687;BME280;37774;52.192;4.584;2023-04-15T08:22:52;101179.06;;;9.10;100.00
51687;BME280;37774;52.192;4.584;2023-04-15T08:25:38;101388.03;;;10.63;100.00
51687;BME280;37774;52.192;4.584;2023-04-15T08:28:24;101433.97;;;10.84;100.00
51687;BME280;37774;52.192;4.584;2023-04-15T08:31:09;101486.00;;;11.32;100.00
51687;BME280;37774;52.192;4.584;2023-04-15T08:33:56;101306.44;;;9.89;100.00
51687;BME280;37774;52.192;4.584;2023-04-15T08:36:42;101456.53;;;11.18;100.00
51687;BME280;37774;52.192;4.584;2023-04-15T08:39:29;101508.56;;;11.27;100.00
51687;BME280;37774;52.192;4.584;2023-04-15T08:42:16;101533.69;;;11.61;100.00
51687;BME280;37774;52.192;4.584;2023-04-15T08:45:04;101390.63;;;10.94;100.00
51687;BME280;37774;52.192;4.584;2023-04-15T08:47:51;101574.41;;;12.41;100.00
51687;BME280;37774;52.192;4.584;2023-04-15T08:50:39;101576.06;;;12.56;100.00
51687;BME280;37774;52.192;4.584;2023-04-15T08:53:25;101570.09;;;12.27;100.00
51687;BME280;37774;52.192;4.584;2023-04-15T08:56:13;101557.94;;;12.14;100.00
51687;BME280;37774;52.192;4.584;2023-04-15T08:58:59;101530.22;;;11.83;100.00
51687;BME280;37774;52.192;4.584;2023-04-15T09:01:45;101492.91;;;11.71;100.00
51687;BME280;37774;52.192;4.584;2023-04-15T09:04:32;101609.19;;;12.12;100.00
51687;BME280;37774;52.192;4.584;2023-04-15T09:07:17;101604.00;;;11.73;100.00
51687;BME280;37774;52.192;4.584;2023-04-15T09:10:03;101603.09;;;12.24;100.00
51687;BME280;37774;52.192;4.584;2023-04-15T09:12:51;101547.44;;;12.44;100.00
51687;BME280;37774;52.192;4.584;2023-04-15T09:15:37;101608.16;;;12.75;100.00
51687;BME280;37774;52.192;4.584;2023-04-15T09:18:27;101473.75;;;11.96;100.00
51687;BME280;37774;52.192;4.584;2023-04-15T09:21:15;101588.16;;;12.69;100.00
51687;BME280;37774;52.192;4.584;2023-04-15T09:24:01;101572.31;;;13.08;100.00
51687;BME280;37774;52.192;4.584;2023-04-15T09:26:46;101539.44;;;12.84;100.00
51687;BME280;37774;52.192;4.584;2023-04-15T09:29:33;101554.28;;;12.68;100.00
51687;BME280;37774;52.192;4.584;2023-04-15T09:32:20;101532.78;;;11.97;100.00
51687;BME280;37774;52.192;4.584;2023-04-15T09:35:10;101606.53;;;12.43;100.00
51687;BME280;37774;52.192;4.584;2023-04-15T09:38:02;101359.41;;;11.22;100.00
51687;BME280;37774;52.192;4.584;2023-04-15T09:40:48;101512.59;;;12.63;100.00
51687;BME280;37774;52.192;4.584;2023-04-15T09:43:37;101589.81;;;12.91;100.00
51687;BME280;37774;52.192;4.584;2023-04-15T09:46:42;101588.81;;;13.15;100.00
51687;BME280;37774;52.192;4.584;2023-04-15T09:49:28;101562.94;;;12.71;100.00
51687;BME280;37774;52.192;4.584;2023-04-15T09:52:13;101473.56;;;12.49;100.00
51687;BME280;37774;52.192;4.584;2023-04-15T09:54:59;101646.47;;;14.06;100.00
51687;BME280;37774;52.192;4.584;2023-04-15T09:57:45;101591.16;;;13.60;100.00
51687;BME280;37774;52.192;4.584;2023-04-15T10:00:31;101650.28;;;13.67;100.00
51687;BME280;37774;52.192;4.584;2023-04-15T10:03:20;101584.59;;;12.95;100.00
51687;BME280;37774;52.192;4.584;2023-04-15T10:06:07;101660.59;;;13.86;100.00
51687;BME280;37774;52.192;4.584;2023-04-15T10:08:53;101514.00;;;13.15;100.00
51687;BME280;37774;52.192;4.584;2023-04-15T10:11:39;101335.78;;;11.82;100.00
51687;BME280;37774;52.192;4.584;2023-04-15T10:14:27;101677.00;;;14.02;100.00
51687;BME280;37774;52.192;4.584;2023-04-15T10:17:17;101598.31;;;14.30;100.00
51687;BME280;37774;52.192;4.584;2023-04-15T10:20:05;101599.97;;;14.39;100.00
51687;BME280;37774;52.192;4.584;2023-04-15T10:22:52;101680.84;;;14.56;100.00
51687;BME280;37774;52.192;4.584;2023-04-15T10:25:37;101405.63;;;12.71;100.00
51687;BME280;37774;52.192;4.584;2023-04-15T10:28:23;101671.16;;;14.66;100.00
51687;BME280;37774;52.192;4.584;2023-04-15T10:31:11;101621.50;;;14.61;100.00
51687;BME280;37774;52.192;4.584;2023-04-15T10:33:56;101676.22;;;14.83;100.00
51687;BME280;37774;52.192;4.584;2023-04-15T10:36:48;101636.00;;;14.10;100.00
51687;BME280;37774;52.192;4.584;2023-04-15T10:39:41;101648.53;;;14.61;100.00
51687;BME280;37774;52.192;4.584;2023-04-15T10:42:33;101623.47;;;13.42;100.00
51687;BME280;37774;52.192;4.584;2023-04-15T10:45:19;101700.69;;;13.79;100.00
51687;BME280;37774;52.192;4.584;2023-04-15T10:48:06;101701.25;;;14.20;100.00
51687;BME280;37774;52.192;4.584;2023-04-15T10:50:55;101650.19;;;14.72;100.00
51687;BME280;37774;52.192;4.584;2023-04-15T10:53:42;101693.06;;;14.54;100.00
51687;BME280;37774;52.192;4.584;2023-04-15T10:56:28;101694.16;;;14.36;100.00
51687;BME280;37774;52.192;4.584;2023-04-15T10:59:15;101691.56;;;14.32;100.00
51687;BME280;37774;52.192;4.584;2023-04-15T11:02:02;101719.00;;;14.80;100.00
51687;BME280;37774;52.192;4.584;2023-04-15T11:04:54;101727.28;;;15.16;100.00
51687;BME280;37774;52.192;4.584;2023-04-15T11:07:54;101727.53;;;14.95;100.00
51687;BME280;37774;52.192;4.584;2023-04-15T11:10:51;101644.50;;;14.32;100.00
51687;BME280;37774;52.192;4.584;2023-04-15T11:13:47;101736.19;;;15.69;100.00
51687;BME280;37774;52.192;4.584;2023-04-15T11:16:41;101684.16;;;15.45;100.00
51687;BME280;37774;52.192;4.584;2023-04-15T11:19:35;101739.31;;;15.30;100.00
51687;BME280;37774;52.192;4.584;2023-04-15T11:22:20;101655.91;;;15.02;100.00
51687;BME280;37774;52.192;4.584;2023-04-15T11:25:06;101706.91;;;14.70;100.00
51687;BME280;37774;52.192;4.584;2023-04-15T11:27:54;101655.31;;;13.92;100.00
51687;BME280;37774;52.192;4.584;2023-04-15T11:30:41;101674.72;;;13.60;100.00
51687;BME280;37774;52.192;4.584;2023-04-15T11:33:27;101719.78;;;13.92;100.00
51687;BME280;37774;52.192;4.584;2023-04-15T11:36:13;101767.13;;;14.59;100.00
51687;BME280;37774;52.192;4.584;2023-04-15T11:38:58;101688.06;;;14.30;100.00
51687;BME280;37774;52.192;4.584;2023-04-15T11:41:47;101668.44;;;13.83;100.00
51687;BME280;37774;52.192;4.584;2023-04-15T11:44:34;101700.22;;;14.38;100.00
51687;BME280;37774;52.192;4.584;2023-04-15T11:47:22;101714.06;;;14.49;100.00
51687;BME280;37774;52.192;4.584;2023-04-15T11:50:15;101715.84;;;14.44;100.00
51687;BME280;37774;52.192;4.584;2023-04-15T11:53:08;101710.78;;;14.24;100.00
51687;BME280;37774;52.192;4.584;2023-04-15T11:55:54;101746.97;;;14.75;100.00
51687;BME280;37774;52.192;4.584;2023-04-15T11:58:39;101730.50;;;15.37;100.00
51687;BME280;37774;52.192;4.584;2023-04-15T12:01:34;101793.31;;;14.57;100.00
51687;BME280;37774;52.192;4.584;2023-04-15T12:04:22;101795.44;;;15.09;100.00
51687;BME280;37774;52.192;4.584;2023-04-15T12:07:07;101788.38;;;15.15;100.00
51687;BME280;37774;52.192;4.584;2023-04-15T12:09:54;101719.56;;;14.16;100.00
51687;BME280;37774;52.192;4.584;2023-04-15T12:12:40;101788.22;;;15.28;100.00
51687;BME280;37774;52.192;4.584;2023-04-15T12:15:25;101737.72;;;15.19;100.00
51687;BME280;37774;52.192;4.584;2023-04-15T12:18:17;101805.78;;;15.19;100.00
51687;BME280;37774;52.192;4.584;2023-04-15T12:21:09;101808.22;;;15.38;100.00
51687;BME280;37774;52.192;4.584;2023-04-15T12:23:56;101753.66;;;15.02;100.00
51687;BME280;37774;52.192;4.584;2023-04-15T12:26:46;101515.28;;;13.71;100.00
51687;BME280;37774;52.192;4.584;2023-04-15T12:29:33;101657.56;;;14.32;100.00
51687;BME280;37774;52.192;4.584;2023-04-15T12:32:19;101601.47;;;14.61;100.00
51687;BME280;37774;52.192;4.584;2023-04-15T12:35:06;101774.53;;;15.74;100.00
51687;BME280;37774;52.192;4.584;2023-04-15T12:37:52;101831.22;;;15.82;100.00
51687;BME280;37774;52.192;4.584;2023-04-15T12:40:39;101831.84;;;16.04;100.00
51687;BME280;37774;52.192;4.584;2023-04-15T12:43:25;101639.09;;;13.48;100.00
51687;BME280;37774;52.192;4.584;2023-04-15T12:46:10;101736.50;;;14.75;100.00
51687;BME280;37774;52.192;4.584;2023-04-15T12:48:56;101783.38;;;14.95;100.00
51687;BME280;37774;52.192;4.584;2023-04-15T12:51:43;101809.78;;;15.50;100.00
51687;BME280;37774;52.192;4.584;2023-04-15T12:54:30;101842.56;;;15.09;100.00
51687;BME280;37774;52.192;4.584;2023-04-15T12:57:15;101653.16;;;14.36;100.00
51687;BME280;37774;52.192;4.584;2023-04-15T13:00:01;101882.63;;;15.15;100.00
51687;BME280;37774;52.192;4.584;2023-04-15T13:02:49;101855.97;;;14.76;100.00
51687;BME280;37774;52.192;4.584;2023-04-15T13:05:35;101683.50;;;13.45;100.00
51687;BME280;37774;52.192;4.584;2023-04-15T13:08:24;101872.81;;;14.38;100.00
51687;BME280;37774;52.192;4.584;2023-04-15T13:11:09;101630.88;;;12.42;100.00
51687;BME280;37774;52.192;4.584;2023-04-15T13:13:55;101671.53;;;12.99;100.00
51687;BME280;37774;52.192;4.584;2023-04-15T13:16:40;101802.75;;;13.30;100.00
51687;BME280;37774;52.192;4.584;2023-04-15T13:19:26;101899.00;;;14.31;100.00
51687;BME280;37774;52.192;4.584;2023-04-15T13:22:11;101809.75;;;13.22;100.00
51687;BME280;37774;52.192;4.584;2023-04-15T13:24:59;101896.38;;;14.25;100.00
51687;BME280;37774;52.192;4.584;2023-04-15T13:27:46;101788.81;;;13.39;100.00
51687;BME280;37774;52.192;4.584;2023-04-15T13:30:31;101814.00;;;13.59;100.00
51687;BME280;37774;52.192;4.584;2023-04-15T13:33:16;101846.03;;;13.97;100.00
51687;BME280;37774;52.192;4.584;2023-04-15T13:36:02;101918.13;;;14.30;100.00
51687;BME280;37774;52.192;4.584;2023-04-15T13:38:48;101921.00;;;13.73;100.00
51687;BME280;37774;52.192;4.584;2023-04-15T13:41:34;101869.63;;;13.84;100.00
51687;BME280;37774;52.192;4.584;2023-04-15T13:44:20;101916.56;;;14.00;100.00
51687;BME280;37774;52.192;4.584;2023-04-15T13:47:05;101558.00;;;11.52;100.00
51687;BME280;37774;52.192;4.584;2023-04-15T13:49:51;101866.19;;;13.68;100.00
51687;BME280;37774;52.192;4.584;2023-04-15T13:52:39;101867.09;;;13.61;100.00
51687;BME280;37774;52.192;4.584;2023-04-15T13:55:24;101801.88;;;13.36;100.00
51687;BME280;37774;52.192;4.584;2023-04-15T13:58:12;101927.03;;;13.95;100.00
51687;BME280;37774;52.192;4.584;2023-04-15T14:00:57;101774.09;;;13.17;100.00
51687;BME280;37774;52.192;4.584;2023-04-15T14:03:42;101955.84;;;13.77;100.00
51687;BME280;37774;52.192;4.584;2023-04-15T14:06:29;101807.13;;;13.33;100.00
51687;BME280;37774;52.192;4.584;2023-04-15T14:09:15;101761.91;;;13.20;100.00
51687;BME280;37774;52.192;4.584;2023-04-15T14:12:00;101920.13;;;13.74;100.00
51687;BME280;37774;52.192;4.584;2023-04-15T14:14:47;101849.78;;;13.15;100.00
51687;BME280;37774;52.192;4.584;2023-04-15T14:17:33;101866.09;;;13.87;100.00
51687;BME280;37774;52.192;4.584;2023-04-15T14:20:18;101880.97;;;13.76;100.00
51687;BME280;37774;52.192;4.584;2023-04-15T14:23:04;101961.50;;;14.75;100.00
51687;BME280;37774;52.192;4.584;2023-04-15T14:25:49;101963.47;;;14.26;100.00